Terminal Aerodrome Forecast
Issued by NWS

Home | Current Version | Previous Version | Graphics & Text | Print | Product List | Glossary On
Versions: 1 2 3 4 5 6 7 8 9 10 11 12 13 14 15 16 17 18 19 20 21 22 23 24 25
654
FTUS43 KTOP 270217 AAB
TAFFOE
TAF AMD
KFOE 270217Z 2702/2724 03007KT 6SM -SHRA SCT025 OVC060
      TEMPO 2704/2708 3SM SHRA BR SCT012 BKN023
     FM270800 02009KT 6SM -RA BR OVC008
      TEMPO 2710/2713 4SM RA SCT008 OVC011
     FM271600 36009KT P6SM OVC013
     FM272200 01007KT P6SM BKN040=

USA.gov is the U.S. government's official web portal to all federal, state and local government web resources and services.